ZZZ2010 LIMJ-LIEA
Flight info
| Callsign | ZZZ2010 |
|---|---|
| Flight time | N/A |
| Altitude | 13000 |
| Route | UNITA DCT OLETI DCT TORTU/N0175F120 A9 OKROK DCT AJO M194 REVDO |
| Aircraft | C208/L-SDFGR/C |
Departure
| Time | 2026-04-25 16:56 |
|---|---|
| Airport | Genoa Cristoforo Colombo Airport (LIMJ) |
Arrival
| Time | N/A |
|---|---|
| Airport | Alghero-Fertilia Airport (LIEA) |
| Time | Latitude | Longitude | Altitude | Speed | Heading |
|---|---|---|---|---|---|
| 2026-04-25 16:54 | 44.40859 | 8.85896 | 8 ft | 0 kts | 284° |
| 2026-04-25 16:55 | 44.40880 | 8.85802 | 8 ft | 37 kts | 283° |
| 2026-04-25 16:55 | 44.40994 | 8.85142 | 20 ft | 99 kts | 278° |
| 2026-04-25 16:55 | 44.41131 | 8.84066 | 232 ft | 124 kts | 275° |
| 2026-04-25 16:55 | 44.41286 | 8.82783 | 359 ft | 147 kts | 276° |
| 2026-04-25 16:56 | 44.41440 | 8.81310 | 568 ft | 153 kts | 275° |
| 2026-04-25 16:56 | 44.41302 | 8.79834 | 685 ft | 160 kts | 237° |
| 2026-04-25 16:56 | 44.40643 | 8.78568 | 890 ft | 164 kts | 239° |
| 2026-04-25 16:56 | 44.40113 | 8.77056 | 909 ft | 177 kts | 243° |
| 2026-04-25 16:57 | 44.39622 | 8.75518 | 1144 ft | 175 kts | 242° |
| 2026-04-25 16:57 | 44.39448 | 8.75002 | 1205 ft | 175 kts | 242° |
| 2026-04-25 16:57 | 44.38411 | 8.72569 | 1503 ft | 173 kts | 237° |
| 2026-04-25 16:57 | 44.37802 | 8.71128 | 1729 ft | 173 kts | 236° |
| 2026-04-25 16:58 | 44.37187 | 8.69729 | 1956 ft | 172 kts | 236° |
| 2026-04-25 16:58 | 44.36370 | 8.68605 | 2227 ft | 160 kts | 200° |
| 2026-04-25 16:58 | 44.35257 | 8.68458 | 2341 ft | 166 kts | 179° |
| 2026-04-25 16:58 | 44.34125 | 8.68513 | 2675 ft | 156 kts | 172° |
| 2026-04-25 16:59 | 44.33160 | 8.68884 | 3160 ft | 145 kts | 154° |
| 2026-04-25 16:59 | 44.32340 | 8.69708 | 3308 ft | 155 kts | 148° |
| 2026-04-25 16:59 | 44.31437 | 8.70549 | 3518 ft | 157 kts | 144° |
| 2026-04-25 16:59 | 44.30529 | 8.71382 | 3769 ft | 155 kts | 150° |
| 2026-04-25 17:00 | 44.29948 | 8.71911 | 4037 ft | 149 kts | 145° |
| 2026-04-25 17:00 | 44.28846 | 8.73075 | 4368 ft | 151 kts | 141° |
| 2026-04-25 17:00 | 44.27982 | 8.73979 | 4442 ft | 162 kts | 144° |
| 2026-04-25 17:00 | 44.26987 | 8.74856 | 4418 ft | 173 kts | 150° |
| 2026-04-25 17:01 | 44.25969 | 8.75724 | 4567 ft | 172 kts | 150° |
| 2026-04-25 17:01 | 44.24863 | 8.76475 | 4591 ft | 177 kts | 154° |
| 2026-04-25 17:01 | 44.23803 | 8.77349 | 4603 ft | 182 kts | 146° |
| 2026-04-25 17:01 | 44.22767 | 8.78352 | 4761 ft | 176 kts | 144° |
| 2026-04-25 17:02 | 44.21813 | 8.79423 | 4801 ft | 178 kts | 140° |
| 2026-04-25 17:02 | 44.20998 | 8.80465 | 5483 ft | 143 kts | 134° |
| 2026-04-25 17:02 | 44.20289 | 8.81496 | 5651 ft | 151 kts | 137° |
| 2026-04-25 17:02 | 44.19585 | 8.82521 | 5948 ft | 150 kts | 134° |
| 2026-04-25 17:03 | 44.18704 | 8.83460 | 5989 ft | 159 kts | 147° |
| 2026-04-25 17:03 | 44.17798 | 8.84323 | 6177 ft | 160 kts | 144° |
| 2026-04-25 17:03 | 44.17076 | 8.85304 | 6749 ft | 136 kts | 125° |
| 2026-04-25 17:03 | 44.16845 | 8.86657 | 6698 ft | 161 kts | 96° |
| 2026-04-25 17:04 | 44.16699 | 8.88319 | 6444 ft | 185 kts | 99° |
| 2026-04-25 17:04 | 44.16512 | 8.90152 | 6289 ft | 193 kts | 106° |
| 2026-04-25 17:04 | 44.15899 | 8.91696 | 6482 ft | 182 kts | 129° |
| 2026-04-25 17:04 | 44.14974 | 8.93120 | 5901 ft | 211 kts | 132° |
| 2026-04-25 17:05 | 44.14113 | 8.94575 | 6406 ft | 178 kts | 131° |
| 2026-04-25 17:05 | 44.12190 | 8.96723 | 6572 ft | 179 kts | 148° |
| 2026-04-25 17:05 | 44.11162 | 8.97582 | 6768 ft | 174 kts | 149° |
| 2026-04-25 17:06 | 44.10075 | 8.98320 | 6861 ft | 174 kts | 161° |
| 2026-04-25 17:06 | 44.08939 | 8.98727 | 7209 ft | 158 kts | 165° |
| 2026-04-25 17:06 | 44.07879 | 8.99114 | 7401 ft | 160 kts | 164° |
| 2026-04-25 17:06 | 44.06798 | 8.99561 | 7490 ft | 165 kts | 162° |
| 2026-04-25 17:07 | 44.05723 | 9.00009 | 7727 ft | 161 kts | 165° |
| 2026-04-25 17:07 | 44.04571 | 9.00443 | 7650 ft | 168 kts | 164° |
| 2026-04-25 17:07 | 44.03467 | 9.00784 | 7852 ft | 162 kts | 167° |
| 2026-04-25 17:07 | 44.02404 | 9.01237 | 7954 ft | 161 kts | 154° |
| 2026-04-25 17:08 | 44.01622 | 9.02364 | 7856 ft | 169 kts | 122° |
| 2026-04-25 17:08 | 44.00817 | 9.03368 | 8209 ft | 151 kts | 152° |
| 2026-04-25 17:08 | 43.99833 | 9.03987 | 8138 ft | 164 kts | 153° |